Time;durP1;ratioP1;P1;durP2;ratioP2;P2;SDS_P1;SDS_P2;PMS_P1;PMS_P2;Temp;Humidity;BMP_temperature;BMP_pressure;BME280_temperature;BME280_humidity;BME280_pressure;Samples;Min_cycle;Max_cycle;Signal;HPM_P1;HPM_P2
2021/05/14 00:01:03;;;;;;;2.33;1.08;;;11.90;93.40;;;;;;5115121;28;20130;-79
2021/05/14 00:03:30;;;;;;;3.40;1.20;;;11.90;93.30;;;;;;5121140;28;20075;-76
2021/05/14 00:05:56;;;;;;;3.10;1.30;;;11.90;93.30;;;;;;5123099;28;20044;-79
2021/05/14 00:08:23;;;;;;;2.55;1.15;;;11.80;93.20;;;;;;5115861;28;20108;-77
2021/05/14 00:10:50;;;;;;;3.15;1.00;;;11.70;93.20;;;;;;5116080;28;20528;-77
2021/05/14 00:13:18;;;;;;;3.03;1.20;;;11.80;93.30;;;;;;5116005;28;20146;-78
2021/05/14 00:15:45;;;;;;;2.75;1.33;;;11.70;93.20;;;;;;5116477;28;20138;-78
2021/05/14 00:18:12;;;;;;;3.95;1.40;;;11.70;93.30;;;;;;5116610;28;20071;-78
2021/05/14 00:20:41;;;;;;;2.88;1.00;;;11.70;93.30;;;;;;5120321;28;20073;-77
2021/05/14 00:23:08;;;;;;;3.08;1.25;;;11.70;93.30;;;;;;5126033;28;20172;-76
2021/05/14 00:25:35;;;;;;;3.17;1.05;;;11.70;93.30;;;;;;5126182;28;20054;-79
2021/05/14 00:28:01;;;;;;;4.60;0.98;;;11.60;93.30;;;;;;5126827;28;20079;-77
2021/05/14 00:30:29;;;;;;;2.88;1.10;;;11.70;93.40;;;;;;5125699;28;20052;-77
2021/05/14 00:32:55;;;;;;;3.08;1.10;;;11.60;93.80;;;;;;5115215;28;20058;-78
2021/05/14 00:35:22;;;;;;;2.65;1.00;;;11.60;93.60;;;;;;5115469;28;20127;-75
2021/05/14 00:37:49;;;;;;;2.30;1.10;;;11.60;93.70;;;;;;5115611;28;20079;-78
2021/05/14 00:40:16;;;;;;;4.65;1.38;;;11.60;93.70;;;;;;5116503;28;20082;-78
2021/05/14 00:42:42;;;;;;;3.50;1.33;;;11.60;93.80;;;;;;5116469;28;20082;-78
2021/05/14 00:45:11;;;;;;;3.45;1.00;;;11.50;93.90;;;;;;5116044;28;20071;-77
2021/05/14 00:47:38;;;;;;;3.00;1.33;;;11.50;94.10;;;;;;5122718;28;20047;-79
2021/05/14 00:50:06;;;;;;;3.88;1.25;;;11.50;94.20;;;;;;5123775;28;20069;-78
2021/05/14 00:52:33;;;;;;;2.70;1.13;;;11.50;94.30;;;;;;5116673;28;20079;-78
2021/05/14 00:55:00;;;;;;;2.80;1.10;;;11.50;94.40;;;;;;5115580;28;20108;-77
2021/05/14 00:57:26;;;;;;;3.33;1.33;;;11.50;94.40;;;;;;5115489;28;20112;-79
2021/05/14 00:59:53;;;;;;;2.72;1.00;;;11.40;94.50;;;;;;5114667;28;20043;-79
2021/05/14 01:02:20;;;;;;;2.55;1.08;;;11.40;94.50;;;;;;5115087;28;20131;-79
2021/05/14 01:04:48;;;;;;;3.20;1.30;;;11.40;94.50;;;;;;5114991;28;20130;-79
2021/05/14 01:07:15;;;;;;;2.90;1.20;;;11.40;94.50;;;;;;5114571;28;20111;-79
2021/05/14 01:09:43;;;;;;;2.45;1.10;;;11.40;94.70;;;;;;5114498;28;20051;-78
2021/05/14 01:12:12;;;;;;;2.95;1.20;;;11.30;94.80;;;;;;5114416;28;20106;-79
2021/05/14 01:14:39;;;;;;;3.85;1.25;;;11.20;94.90;;;;;;5096546;28;20082;-79
2021/05/14 01:17:05;;;;;;;2.92;1.30;;;11.20;95.00;;;;;;5113282;28;20503;-78
2021/05/14 01:19:32;;;;;;;4.68;1.30;;;11.20;95.00;;;;;;5096587;28;20523;-78
2021/05/14 01:22:00;;;;;;;2.17;0.90;;;11.20;95.00;;;;;;5111239;28;20083;-79
2021/05/14 01:24:27;;;;;;;2.20;0.90;;;11.20;95.10;;;;;;5122970;28;20048;-78
2021/05/14 01:26:53;;;;;;;2.40;0.95;;;11.20;95.10;;;;;;5124005;28;20086;-78
2021/05/14 01:29:20;;;;;;;3.13;1.30;;;11.10;95.10;;;;;;5115818;28;20130;-79
2021/05/14 01:31:46;;;;;;;2.80;1.30;;;11.20;95.10;;;;;;5115085;28;20067;-79
2021/05/14 01:34:13;;;;;;;3.70;1.10;;;11.10;95.10;;;;;;5114263;28;20079;-79
2021/05/14 01:36:40;;;;;;;2.53;1.20;;;11.10;95.20;;;;;;5113264;28;20090;-79
2021/05/14 01:39:10;;;;;;;2.50;1.17;;;11.00;95.30;;;;;;5114081;28;20134;-78
2021/05/14 01:41:37;;;;;;;2.47;1.20;;;11.00;95.40;;;;;;5099519;28;20317;-79
2021/05/14 01:44:06;;;;;;;2.10;0.98;;;10.90;95.50;;;;;;5114168;28;20079;-79
2021/05/14 01:46:32;;;;;;;2.67;1.00;;;10.90;95.70;;;;;;5114095;28;20477;-78
2021/05/14 01:48:59;;;;;;;2.22;0.90;;;10.90;95.80;;;;;;5113613;28;20130;-78
2021/05/14 01:51:27;;;;;;;2.30;1.00;;;11.00;95.70;;;;;;5114302;28;20075;-78
2021/05/14 01:53:54;;;;;;;3.05;1.30;;;10.80;95.60;;;;;;5113624;28;20075;-78
2021/05/14 01:56:22;;;;;;;3.40;1.33;;;10.90;95.50;;;;;;5113286;28;20146;-78
2021/05/14 01:58:50;;;;;;;4.50;1.20;;;10.90;95.40;;;;;;5114416;28;20075;-77
2021/05/14 02:01:17;;;;;;;2.75;1.00;;;10.90;95.40;;;;;;5114141;28;20040;-78
2021/05/14 02:03:44;;;;;;;3.22;1.13;;;10.80;95.40;;;;;;5113823;28;20083;-78
2021/05/14 02:06:11;;;;;;;4.00;1.23;;;10.80;95.30;;;;;;5114022;28;20103;-78
2021/05/14 02:08:38;;;;;;;2.85;1.13;;;10.80;95.40;;;;;;5113631;28;20126;-79
2021/05/14 02:11:09;;;;;;;2.72;1.17;;;10.90;95.30;;;;;;5113922;28;20050;-79
2021/05/14 02:13:37;;;;;;;2.58;1.00;;;10.80;95.40;;;;;;5113920;28;20047;-79
2021/05/14 02:16:04;;;;;;;4.47;1.50;;;10.60;95.20;;;;;;5113543;28;20439;-77
2021/05/14 02:18:31;;;;;;;2.65;1.10;;;10.80;95.30;;;;;;5113881;28;20114;-79
2021/05/14 02:20:58;;;;;;;2.35;1.05;;;10.70;95.20;;;;;;5113473;28;20105;-76
2021/05/14 02:23:24;;;;;;;2.80;1.10;;;10.70;95.20;;;;;;5113551;28;20466;-76
2021/05/14 02:25:51;;;;;;;3.00;1.23;;;10.60;95.20;;;;;;5117739;28;20151;-78
2021/05/14 02:28:18;;;;;;;3.17;1.10;;;10.60;95.30;;;;;;5117920;28;20082;-78
2021/05/14 02:30:46;;;;;;;2.10;0.88;;;10.60;95.40;;;;;;5118073;28;20086;-78
2021/05/14 02:33:12;;;;;;;4.13;1.20;;;10.60;95.50;;;;;;5117369;28;20123;-76
2021/05/14 02:35:39;;;;;;;2.03;0.90;;;10.60;95.40;;;;;;5117857;28;20138;-79
2021/05/14 02:38:07;;;;;;;2.58;1.13;;;10.60;95.40;;;;;;5117591;28;20457;-79
2021/05/14 02:40:34;;;;;;;2.55;1.00;;;10.40;95.40;;;;;;5117781;28;20078;-78
2021/05/14 02:43:01;;;;;;;2.85;1.15;;;10.40;95.40;;;;;;5117458;28;20124;-79
2021/05/14 02:45:30;;;;;;;3.05;1.00;;;10.50;95.40;;;;;;5116762;28;20120;-81
2021/05/14 02:47:58;;;;;;;3.55;1.00;;;10.60;95.40;;;;;;5117585;28;20044;-79
2021/05/14 02:50:25;;;;;;;2.80;1.00;;;10.50;95.40;;;;;;5117339;28;20127;-79
2021/05/14 02:52:51;;;;;;;2.17;1.05;;;10.50;95.40;;;;;;5099845;28;20079;-80
2021/05/14 02:55:19;;;;;;;2.70;1.10;;;10.50;95.50;;;;;;5117254;28;20134;-79
2021/05/14 02:57:46;;;;;;;3.70;1.13;;;10.50;95.70;;;;;;5117402;28;20108;-77
2021/05/14 03:00:15;;;;;;;2.92;1.10;;;10.50;95.50;;;;;;5117778;28;20047;-77
2021/05/14 03:02:41;;;;;;;2.42;1.10;;;10.50;95.60;;;;;;5115467;28;20083;-78
2021/05/14 03:05:11;;;;;;;3.42;1.40;;;10.60;95.50;;;;;;5115179;28;20139;-78
2021/05/14 03:07:38;;;;;;;2.78;1.10;;;10.40;95.70;;;;;;5119442;28;20107;-77
2021/05/14 03:10:07;;;;;;;2.47;1.10;;;10.40;95.40;;;;;;5104168;28;20519;-78
2021/05/14 03:12:34;;;;;;;2.88;1.35;;;10.40;95.40;;;;;;5097226;28;20583;-78
2021/05/14 03:15:01;;;;;;;2.55;1.10;;;10.40;95.40;;;;;;5114652;28;20138;-77
2021/05/14 03:17:27;;;;;;;2.80;1.10;;;10.40;95.40;;;;;;5114232;28;20134;-79
2021/05/14 03:19:54;;;;;;;2.47;1.20;;;10.40;95.40;;;;;;5114968;28;20086;-79
2021/05/14 03:22:21;;;;;;;2.92;1.33;;;10.40;95.40;;;;;;5114874;28;20122;-78
2021/05/14 03:24:48;;;;;;;2.85;1.17;;;10.40;95.40;;;;;;5114143;28;20130;-79
2021/05/14 03:27:15;;;;;;;2.17;0.90;;;10.40;95.40;;;;;;5114285;28;20090;-77
2021/05/14 03:29:41;;;;;;;3.55;1.20;;;10.40;95.40;;;;;;5114129;28;20071;-77
2021/05/14 03:32:08;;;;;;;4.07;1.15;;;10.40;95.70;;;;;;5114635;28;20086;-79
2021/05/14 03:34:34;;;;;;;2.83;1.10;;;10.40;95.40;;;;;;5114479;28;20079;-78
2021/05/14 03:37:01;;;;;;;2.72;1.10;;;10.40;95.80;;;;;;5112745;28;20149;-78
2021/05/14 03:39:29;;;;;;;2.78;1.20;;;10.30;95.60;;;;;;5114136;28;20071;-79
2021/05/14 03:42:06;;;;;;;2.83;1.10;;;10.30;95.60;;;;;;5114441;28;20043;-79
2021/05/14 03:44:33;;;;;;;4.43;1.08;;;10.20;95.50;;;;;;5113721;28;20500;-79
2021/05/14 03:47:03;;;;;;;2.90;1.20;;;10.40;95.80;;;;;;5113500;28;20130;-78
2021/05/14 03:49:30;;;;;;;2.70;1.10;;;10.30;95.50;;;;;;5114290;28;20130;-79
2021/05/14 03:51:57;;;;;;;2.45;1.10;;;10.30;95.60;;;;;;5115566;28;20511;-79
2021/05/14 03:54:23;;;;;;;2.22;1.00;;;10.30;95.60;;;;;;5116777;28;20246;-79
2021/05/14 03:56:51;;;;;;;2.55;1.00;;;10.30;95.60;;;;;;5116333;28;20126;-79
2021/05/14 03:59:17;;;;;;;3.85;1.10;;;10.30;95.60;;;;;;5115250;28;20556;-79
2021/05/14 04:01:44;;;;;;;3.08;1.10;;;10.30;95.70;;;;;;5114742;28;20143;-79
2021/05/14 04:04:11;;;;;;;2.35;0.90;;;10.30;95.60;;;;;;5116132;28;20545;-79
2021/05/14 04:06:38;;;;;;;3.35;1.25;;;10.30;95.60;;;;;;5115681;28;20405;-78
2021/05/14 04:09:05;;;;;;;2.60;1.10;;;10.20;95.70;;;;;;5116005;28;20043;-79
2021/05/14 04:11:55;;;;;;;2.33;1.05;;;10.30;95.70;;;;;;5116023;28;20043;-79
2021/05/14 04:14:31;;;;;;;2.58;1.10;;;10.30;95.70;;;;;;5115187;28;20044;-78
2021/05/14 04:16:58;;;;;;;2.58;1.00;;;10.20;95.60;;;;;;5115081;28;20062;-77
2021/05/14 04:19:25;;;;;;;2.38;0.90;;;10.30;95.80;;;;;;5115832;28;20078;-77
2021/05/14 04:21:54;;;;;;;2.60;0.90;;;10.40;95.80;;;;;;5115440;28;20044;-77
2021/05/14 04:24:22;;;;;;;2.35;1.10;;;10.50;95.80;;;;;;5115430;28;20039;-78
2021/05/14 04:26:50;;;;;;;3.17;1.00;;;10.30;95.80;;;;;;5097405;28;20071;-78
2021/05/14 04:29:17;;;;;;;2.55;1.10;;;10.30;96.00;;;;;;5114858;28;20055;-78
2021/05/14 04:31:46;;;;;;;2.90;1.05;;;10.30;95.60;;;;;;5097673;28;20110;-78
2021/05/14 04:34:14;;;;;;;2.72;1.00;;;10.30;95.60;;;;;;5115735;28;20130;-78
2021/05/14 04:36:42;;;;;;;3.58;0.80;;;10.30;95.90;;;;;;5115444;28;20192;-78
2021/05/14 04:39:11;;;;;;;2.20;1.00;;;10.30;95.60;;;;;;5114037;28;20051;-78
2021/05/14 04:41:38;;;;;;;2.72;1.30;;;10.30;95.70;;;;;;5110026;28;20048;-78
2021/05/14 04:44:06;;;;;;;3.28;1.00;;;10.30;95.70;;;;;;5086187;28;20537;-78
2021/05/14 04:46:33;;;;;;;2.92;0.93;;;10.30;95.60;;;;;;5101747;28;20078;-78
2021/05/14 04:49:01;;;;;;;1.85;1.00;;;10.20;95.70;;;;;;5106384;28;20054;-79
2021/05/14 04:51:28;;;;;;;2.58;1.13;;;10.20;95.80;;;;;;5120700;28;20078;-78
2021/05/14 04:53:55;;;;;;;2.63;1.20;;;10.20;95.90;;;;;;5120283;28;20142;-78
2021/05/14 04:56:22;;;;;;;3.55;1.25;;;10.10;96.00;;;;;;5122441;28;20035;-78
2021/05/14 04:58:49;;;;;;;4.40;1.40;;;10.10;96.30;;;;;;5114755;28;20130;-78
2021/05/14 05:01:18;;;;;;;3.70;1.30;;;10.00;96.20;;;;;;5097716;28;20085;-77
2021/05/14 05:03:47;;;;;;;2.40;1.10;;;9.90;96.60;;;;;;5114616;28;20086;-78
2021/05/14 05:06:15;;;;;;;3.85;1.20;;;9.90;96.90;;;;;;5115749;28;20083;-77
2021/05/14 05:08:42;;;;;;;3.30;1.10;;;9.90;96.80;;;;;;5097179;28;20548;-78
2021/05/14 05:11:08;;;;;;;2.50;1.00;;;9.90;96.90;;;;;;5115057;28;20094;-78
2021/05/14 05:13:35;;;;;;;2.85;1.10;;;9.90;96.90;;;;;;5115412;28;20122;-77
2021/05/14 05:16:02;;;;;;;3.25;1.10;;;10.00;97.00;;;;;;5107903;28;20130;-76
2021/05/14 05:18:29;;;;;;;3.40;1.35;;;10.10;97.00;;;;;;5110668;27;20079;-77
2021/05/14 05:20:57;;;;;;;2.47;1.17;;;10.20;96.90;;;;;;5100239;28;20051;-76
2021/05/14 05:23:25;;;;;;;2.78;1.20;;;10.20;96.70;;;;;;5099823;28;20055;-78
2021/05/14 05:25:52;;;;;;;4.57;1.58;;;10.20;96.90;;;;;;5104372;28;20075;-77
2021/05/14 05:28:22;;;;;;;3.10;1.30;;;10.30;96.60;;;;;;5097327;28;20124;-77
2021/05/14 05:30:49;;;;;;;2.85;1.10;;;10.30;96.60;;;;;;5097538;28;20071;-78
2021/05/14 05:33:16;;;;;;;2.90;1.42;;;10.40;96.70;;;;;;5094546;28;20079;-78
2021/05/14 05:35:43;;;;;;;3.03;1.20;;;10.40;96.60;;;;;;5091230;28;20079;-78
2021/05/14 05:38:17;;;;;;;3.28;1.27;;;10.40;96.40;;;;;;5105811;28;20090;-78
2021/05/14 05:40:45;;;;;;;3.95;1.05;;;10.50;96.10;;;;;;5099160;28;20578;-79
2021/05/14 05:43:13;;;;;;;3.22;1.30;;;10.50;95.80;;;;;;5094400;28;20072;-78
2021/05/14 05:45:40;;;;;;;2.90;1.10;;;10.60;95.60;;;;;;5081422;28;20155;-77
2021/05/14 05:48:09;;;;;;;2.38;1.00;;;10.50;95.40;;;;;;5113537;28;20134;-76
2021/05/14 05:50:36;;;;;;;2.72;1.10;;;10.50;95.60;;;;;;5114147;28;20396;-77
2021/05/14 05:53:03;;;;;;;2.95;1.08;;;10.60;95.80;;;;;;5095777;28;20063;-78
2021/05/14 05:55:30;;;;;;;3.00;1.10;;;10.60;95.80;;;;;;5091773;28;20047;-76
2021/05/14 05:58:05;;;;;;;4.18;1.30;;;10.70;95.70;;;;;;5108402;28;20075;-76
2021/05/14 06:00:32;;;;;;;3.00;1.08;;;10.70;95.70;;;;;;5100116;27;20071;-78
2021/05/14 06:03:00;;;;;;;2.95;1.00;;;10.80;95.50;;;;;;5106596;28;20067;-78
2021/05/14 06:05:26;;;;;;;2.70;1.02;;;10.80;95.50;;;;;;5097748;28;20124;-76
2021/05/14 06:07:53;;;;;;;2.03;0.98;;;10.90;95.40;;;;;;5100162;28;20094;-79
2021/05/14 06:10:20;;;;;;;2.67;0.98;;;10.80;95.30;;;;;;5101110;28;20078;-78
2021/05/14 06:12:46;;;;;;;2.65;0.93;;;10.90;95.40;;;;;;5095714;28;20097;-78
2021/05/14 06:15:14;;;;;;;3.08;1.08;;;10.90;95.50;;;;;;5108534;28;20477;-78
2021/05/14 06:17:42;;;;;;;2.72;1.02;;;11.00;95.50;;;;;;5102462;28;20083;-77
2021/05/14 06:20:12;;;;;;;3.45;1.00;;;11.00;95.30;;;;;;5104805;28;20047;-77
2021/05/14 06:22:39;;;;;;;1.73;0.70;;;11.10;95.10;;;;;;5094311;28;20132;-78
2021/05/14 06:25:07;;;;;;;2.95;1.10;;;11.20;95.00;;;;;;5098552;28;20449;-79
2021/05/14 06:27:33;;;;;;;2.97;1.00;;;11.20;94.80;;;;;;5106482;28;20105;-78
2021/05/14 06:30:00;;;;;;;2.05;0.85;;;11.30;94.80;;;;;;5113528;28;20086;-77
2021/05/14 06:32:28;;;;;;;2.90;0.95;;;11.30;94.80;;;;;;5109691;28;20079;-79
2021/05/14 06:34:55;;;;;;;1.80;0.70;;;11.40;94.90;;;;;;5102261;28;20083;-78
2021/05/14 06:37:21;;;;;;;2.53;1.00;;;11.50;94.80;;;;;;5113524;28;20036;-78
2021/05/14 06:39:48;;;;;;;2.13;0.73;;;11.60;94.40;;;;;;5106681;28;20557;-79
2021/05/14 06:42:15;;;;;;;3.55;0.90;;;11.60;94.20;;;;;;5097050;28;20047;-77
2021/05/14 06:44:42;;;;;;;2.38;0.90;;;11.70;94.10;;;;;;5094731;28;20549;-77
2021/05/14 06:47:09;;;;;;;2.97;0.75;;;11.70;94.10;;;;;;5112042;28;20138;-76
2021/05/14 06:49:36;;;;;;;2.30;0.70;;;11.80;94.00;;;;;;5123080;28;20186;-78
2021/05/14 06:52:03;;;;;;;2.70;0.85;;;11.80;94.10;;;;;;5112162;28;20075;-77
2021/05/14 06:54:30;;;;;;;1.70;0.63;;;11.90;93.80;;;;;;5101839;28;20071;-76
2021/05/14 06:56:57;;;;;;;3.38;0.77;;;11.90;93.80;;;;;;5101711;28;20195;-74
2021/05/14 06:59:24;;;;;;;2.03;0.63;;;11.90;94.00;;;;;;5110793;28;20044;-75
2021/05/14 07:01:50;;;;;;;2.75;0.70;;;12.00;93.70;;;;;;5112505;28;20433;-76
2021/05/14 07:04:17;;;;;;;2.05;0.68;;;12.00;93.60;;;;;;5111993;28;20490;-79
2021/05/14 07:06:44;;;;;;;1.92;0.70;;;12.10;93.60;;;;;;5119353;28;20079;-77
2021/05/14 07:09:12;;;;;;;2.42;0.57;;;12.10;93.70;;;;;;5116887;28;20071;-77
2021/05/14 07:11:39;;;;;;;1.55;0.70;;;12.10;93.80;;;;;;5097606;28;20047;-77
2021/05/14 07:14:06;;;;;;;2.08;0.70;;;12.20;93.90;;;;;;5099679;28;20114;-77
2021/05/14 07:16:33;;;;;;;1.67;0.55;;;12.30;94.10;;;;;;5117273;28;20072;-77
2021/05/14 07:19:00;;;;;;;1.45;0.60;;;12.30;94.20;;;;;;5098739;28;20070;-77
2021/05/14 07:21:27;;;;;;;2.90;0.98;;;12.40;93.80;;;;;;5099241;28;20091;-78
2021/05/14 07:23:54;;;;;;;2.70;0.80;;;12.40;93.30;;;;;;5095335;28;20094;-77
2021/05/14 07:26:21;;;;;;;3.53;0.90;;;12.40;93.40;;;;;;5083622;28;20390;-80
2021/05/14 07:28:48;;;;;;;1.67;0.60;;;12.40;93.60;;;;;;5101242;27;20496;-79
2021/05/14 07:31:15;;;;;;;2.03;0.60;;;12.50;93.70;;;;;;5121209;27;20043;-78
2021/05/14 07:33:44;;;;;;;1.27;0.52;;;12.60;93.40;;;;;;5106016;28;20467;-78
2021/05/14 07:36:10;;;;;;;1.52;0.68;;;12.60;93.20;;;;;;5098199;28;20044;-78
2021/05/14 07:38:37;;;;;;;1.30;0.50;;;12.60;92.90;;;;;;5080068;28;20083;-78
2021/05/14 07:41:05;;;;;;;1.08;0.50;;;12.60;92.90;;;;;;5094162;28;20130;-78
2021/05/14 07:43:31;;;;;;;1.50;0.50;;;12.70;93.00;;;;;;5106886;28;20044;-79
2021/05/14 07:45:58;;;;;;;0.68;0.40;;;12.70;93.00;;;;;;5101275;27;20120;-81
2021/05/14 07:48:26;;;;;;;1.25;0.50;;;12.80;93.20;;;;;;5120269;27;20079;-79
2021/05/14 07:50:53;;;;;;;3.60;0.77;;;12.90;92.90;;;;;;5120730;27;20043;-80
2021/05/14 07:53:20;;;;;;;1.58;0.60;;;12.90;92.70;;;;;;5078471;28;20040;-79
2021/05/14 07:55:47;;;;;;;3.10;0.63;;;13.00;92.70;;;;;;5105544;28;20469;-79
2021/05/14 07:58:15;;;;;;;1.40;0.47;;;13.00;92.60;;;;;;5083553;27;20074;-78
2021/05/14 08:00:43;;;;;;;2.60;0.60;;;13.10;92.60;;;;;;5112389;27;20145;-80
2021/05/14 08:03:11;;;;;;;2.13;0.60;;;13.20;92.50;;;;;;5114704;27;20040;-78
2021/05/14 08:05:37;;;;;;;1.67;0.52;;;13.20;92.60;;;;;;5097564;28;20058;-77
2021/05/14 08:08:08;;;;;;;2.03;0.60;;;13.40;92.50;;;;;;5115746;28;20142;-79
2021/05/14 08:10:35;;;;;;;1.42;0.40;;;13.40;92.40;;;;;;5098629;28;20039;-78
2021/05/14 08:13:02;;;;;;;2.03;0.55;;;13.50;92.30;;;;;;5106981;28;20420;-78
2021/05/14 08:15:30;;;;;;;1.50;0.50;;;13.60;92.10;;;;;;5126020;28;20040;-78
2021/05/14 08:17:57;;;;;;;1.42;0.47;;;13.70;92.00;;;;;;5125099;28;20516;-77
2021/05/14 08:20:25;;;;;;;1.20;0.50;;;13.70;91.70;;;;;;5126451;28;20075;-78
2021/05/14 08:22:52;;;;;;;0.77;0.35;;;13.80;91.80;;;;;;5121960;28;20519;-78
2021/05/14 08:25:20;;;;;;;1.23;0.50;;;13.80;92.20;;;;;;5117052;28;20123;-80
2021/05/14 08:27:46;;;;;;;0.85;0.43;;;14.00;92.00;;;;;;5114978;28;20130;-80
2021/05/14 08:30:15;;;;;;;0.88;0.43;;;14.10;91.70;;;;;;5116081;28;20378;-79
2021/05/14 08:32:43;;;;;;;0.90;0.40;;;14.10;91.40;;;;;;5107512;28;20091;-79
2021/05/14 08:35:11;;;;;;;1.00;0.40;;;14.20;91.30;;;;;;5116814;27;20075;-80
2021/05/14 08:37:39;;;;;;;1.08;0.50;;;14.30;90.80;;;;;;5119432;27;20055;-79
2021/05/14 08:40:08;;;;;;;1.25;0.40;;;14.40;90.50;;;;;;5115670;28;20488;-79
2021/05/14 08:42:39;;;;;;;1.10;0.40;;;14.50;90.20;;;;;;5115510;28;20218;-78
2021/05/14 08:45:12;;;;;;;1.55;0.45;;;14.50;90.20;;;;;;5114764;28;20050;-79
2021/05/14 08:47:40;;;;;;;1.52;0.52;;;14.60;89.70;;;;;;5115543;28;20059;-78
2021/05/14 08:50:11;;;;;;;1.58;0.68;;;14.70;89.70;;;;;;5110719;27;20043;-78
2021/05/14 08:52:41;;;;;;;1.48;0.50;;;14.80;88.20;;;;;;5124914;27;20077;-78
2021/05/14 08:55:12;;;;;;;1.50;0.35;;;15.00;88.10;;;;;;5129955;27;20111;-79
2021/05/14 08:57:39;;;;;;;1.40;0.45;;;15.10;86.40;;;;;;5110060;27;20484;-80
2021/05/14 09:00:09;;;;;;;1.10;0.32;;;15.20;85.30;;;;;;5118110;27;20071;-80
2021/05/14 09:02:36;;;;;;;1.15;0.40;;;15.30;84.80;;;;;;5119096;27;20469;-79
2021/05/14 09:05:27;;;;;;;1.02;0.50;;;15.30;83.70;;;;;;5117125;27;20051;-80
2021/05/14 09:07:56;;;;;;;1.77;0.50;;;15.40;83.50;;;;;;5087707;27;20553;-79
2021/05/14 09:10:23;;;;;;;1.25;0.50;;;15.40;82.30;;;;;;5107239;27;20176;-79
2021/05/14 09:12:50;;;;;;;1.02;0.30;;;15.50;81.40;;;;;;5126088;27;20078;-79
2021/05/14 09:15:29;;;;;;;1.27;0.30;;;15.60;78.80;;;;;;5113274;27;20146;-78
2021/05/14 09:18:14;;;;;;;1.83;0.50;;;15.60;78.40;;;;;;5087900;28;20438;-79
2021/05/14 09:20:46;;;;;;;1.92;0.40;;;15.60;77.20;;;;;;5115435;28;20059;-87
2021/05/14 09:23:31;;;;;;;1.48;0.43;;;15.60;78.50;;;;;;5114734;28;20378;-83
2021/05/14 09:26:01;;;;;;;0.88;0.35;;;15.60;77.60;;;;;;5097763;28;20085;-90
2021/05/14 09:28:30;;;;;;;1.63;0.40;;;15.60;78.10;;;;;;5097536;28;20056;-83
2021/05/14 09:31:12;;;;;;;0.82;0.30;;;15.70;78.50;;;;;;5124176;28;20050;-81
2021/05/14 09:33:41;;;;;;;0.70;0.25;;;15.80;77.60;;;;;;5103222;28;20043;-86
2021/05/14 09:36:11;;;;;;;1.17;0.30;;;15.90;74.20;;;;;;5093599;28;20134;-79
2021/05/14 09:38:47;;;;;;;0.80;0.40;;;15.90;75.60;;;;;;5110427;28;20040;-88
2021/05/14 09:41:36;;;;;;;1.58;0.50;;;15.90;73.80;;;;;;5099941;28;20508;-81
2021/05/14 09:44:10;;;;;;;2.25;0.60;;;16.00;73.90;;;;;;5116878;28;20039;-81
2021/05/14 09:46:40;;;;;;;2.00;0.50;;;16.00;70.00;;;;;;5097089;28;20564;-80
2021/05/14 09:49:09;;;;;;;0.93;0.40;;;16.00;69.00;;;;;;5085866;28;20051;-85
2021/05/14 09:51:49;;;;;;;2.20;0.40;;;16.00;70.70;;;;;;5100634;28;20048;-80
2021/05/14 09:54:24;;;;;;;1.65;0.50;;;16.00;72.40;;;;;;5098196;28;20071;-79
2021/05/14 09:57:19;;;;;;;1.52;0.40;;;16.00;74.00;;;;;;5088835;28;20043;-77
2021/05/14 09:59:49;;;;;;;1.92;0.50;;;16.10;71.30;;;;;;5106621;28;20047;-77
2021/05/14 10:02:23;;;;;;;2.63;0.50;;;16.20;71.90;;;;;;5114400;28;20134;-78
2021/05/14 10:04:51;;;;;;;2.58;0.50;;;16.20;69.90;;;;;;5079478;28;20078;-79
2021/05/14 10:07:20;;;;;;;1.73;0.60;;;16.20;69.50;;;;;;5113956;28;20090;-79
2021/05/14 10:09:51;;;;;;;2.83;0.88;;;16.10;69.30;;;;;;5096625;28;20040;-79
2021/05/14 10:12:19;;;;;;;2.20;0.60;;;16.20;69.00;;;;;;5113824;28;20096;-79
2021/05/14 10:14:47;;;;;;;2.08;0.60;;;16.10;68.80;;;;;;5096053;28;20122;-79
2021/05/14 10:17:14;;;;;;;1.45;0.50;;;16.10;67.50;;;;;;5114156;28;20139;-79
2021/05/14 10:19:43;;;;;;;2.28;0.63;;;16.10;68.30;;;;;;5095454;28;20466;-79
2021/05/14 10:22:11;;;;;;;2.92;0.70;;;16.20;67.10;;;;;;5113758;28;20076;-79
2021/05/14 10:24:40;;;;;;;2.28;0.75;;;16.40;66.80;;;;;;5096038;28;20139;-80
2021/05/14 10:27:19;;;;;;;1.52;0.43;;;16.50;68.90;;;;;;5114216;28;20497;-79
2021/05/14 10:29:48;;;;;;;1.23;0.57;;;16.70;64.90;;;;;;5114218;28;20644;-80
2021/05/14 10:32:16;;;;;;;1.58;0.40;;;16.70;66.00;;;;;;5113913;28;20073;-78
2021/05/14 10:34:42;;;;;;;1.42;0.40;;;16.70;62.90;;;;;;5113736;28;20086;-77
2021/05/14 10:37:09;;;;;;;2.17;0.60;;;16.70;61.70;;;;;;5114721;28;20044;-79
2021/05/14 10:39:40;;;;;;;1.65;0.60;;;16.60;61.20;;;;;;5119092;28;20059;-78
2021/05/14 10:42:09;;;;;;;2.58;0.50;;;16.70;63.30;;;;;;5120319;28;20507;-77
2021/05/14 10:44:45;;;;;;;1.42;0.40;;;16.70;67.00;;;;;;5113983;28;20081;-79
2021/05/14 10:47:48;;;;;;;2.00;0.40;;;16.70;68.80;;;;;;5118583;28;20090;-78
2021/05/14 10:50:42;;;;;;;2.30;0.60;;;16.70;69.80;;;;;;5118619;28;20120;-78
2021/05/14 10:53:31;;;;;;;1.95;0.50;;;16.70;69.40;;;;;;5117373;28;20134;-79
2021/05/14 10:56:27;;;;;;;1.50;0.30;;;16.60;71.20;;;;;;5121451;28;20052;-78
2021/05/14 10:59:02;;;;;;;1.75;0.40;;;16.50;72.60;;;;;;5110614;28;20051;-79
2021/05/14 11:01:35;;;;;;;2.13;0.77;;;16.50;73.90;;;;;;5119241;28;20130;-77
2021/05/14 11:04:04;;;;;;;2.72;0.60;;;16.50;73.60;;;;;;5118509;28;20112;-79
2021/05/14 11:06:47;;;;;;;2.85;0.90;;;16.50;72.80;;;;;;5117740;28;20130;-79
2021/05/14 11:09:15;;;;;;;2.08;0.50;;;16.40;70.70;;;;;;5117377;28;20066;-80
2021/05/14 11:11:58;;;;;;;2.47;0.68;;;16.40;73.20;;;;;;5117446;28;20135;-79
2021/05/14 11:14:25;;;;;;;1.50;0.52;;;16.50;73.90;;;;;;5116887;28;20134;-79
2021/05/14 11:16:53;;;;;;;2.53;0.60;;;16.60;72.10;;;;;;5098607;28;20048;-78
2021/05/14 11:19:26;;;;;;;1.92;0.52;;;16.70;70.40;;;;;;5099585;28;20048;-78
2021/05/14 11:22:07;;;;;;;8.00;3.45;;;16.70;70.80;;;;;;5118322;28;20094;-78
2021/05/14 11:24:48;;;;;;;5.88;2.58;;;16.80;70.00;;;;;;5118788;28;20134;-77
2021/05/14 11:27:19;;;;;;;5.03;1.83;;;17.00;70.70;;;;;;5118232;28;20071;-79
2021/05/14 11:29:50;;;;;;;2.53;0.60;;;17.10;69.90;;;;;;5125476;28;20040;-77
2021/05/14 11:32:34;;;;;;;2.38;0.50;;;17.20;65.60;;;;;;5119827;28;20135;-80
2021/05/14 11:35:08;;;;;;;1.77;0.45;;;17.20;65.40;;;;;;5119461;28;20047;-79
2021/05/14 11:37:38;;;;;;;1.92;0.40;;;17.20;65.80;;;;;;5105932;28;20044;-80
2021/05/14 11:40:11;;;;;;;1.42;0.40;;;17.20;65.60;;;;;;5084256;28;20084;-79
2021/05/14 11:42:43;;;;;;;1.80;0.45;;;17.30;66.90;;;;;;5098613;28;20072;-79
2021/05/14 11:45:13;;;;;;;0.65;0.30;;;17.40;68.00;;;;;;5062850;28;20110;-77
2021/05/14 11:47:53;;;;;;;0.98;0.40;;;17.50;66.60;;;;;;5096217;28;20139;-78
2021/05/14 11:50:28;;;;;;;2.05;0.70;;;17.60;67.80;;;;;;5112059;28;20123;-78
2021/05/14 11:52:55;;;;;;;1.58;0.50;;;17.70;64.60;;;;;;5096395;28;20131;-78
2021/05/14 11:55:22;;;;;;;1.88;0.50;;;17.70;63.60;;;;;;5061215;28;20082;-79
2021/05/14 11:57:52;;;;;;;1.70;0.40;;;17.80;63.70;;;;;;5077127;28;20137;-78
2021/05/14 12:00:27;;;;;;;2.03;0.60;;;17.80;62.80;;;;;;5112386;28;20438;-77
2021/05/14 12:02:56;;;;;;;1.70;0.35;;;17.90;62.50;;;;;;5096468;28;20125;-79
2021/05/14 12:05:24;;;;;;;2.63;0.40;;;18.00;64.10;;;;;;5096511;28;20051;-78
2021/05/14 12:07:51;;;;;;;2.22;0.43;;;18.10;64.00;;;;;;5095850;28;20056;-77
2021/05/14 12:10:20;;;;;;;1.15;0.30;;;18.10;63.70;;;;;;5077884;28;20177;-80
2021/05/14 12:12:47;;;;;;;1.77;0.70;;;18.10;64.60;;;;;;5111822;28;20080;-79
2021/05/14 12:15:26;;;;;;;1.98;0.50;;;18.10;65.40;;;;;;5095863;28;20493;-78
2021/05/14 12:17:59;;;;;;;1.27;0.40;;;18.20;63.80;;;;;;5077507;28;20079;-79
2021/05/14 12:20:33;;;;;;;1.95;0.40;;;18.10;65.00;;;;;;5095591;28;20052;-78
2021/05/14 12:23:02;;;;;;;1.80;1.02;;;18.20;66.00;;;;;;5078086;28;20562;-76
2021/05/14 12:25:41;;;;;;;1.02;0.40;;;18.40;67.50;;;;;;5095308;28;20155;-78
2021/05/14 12:28:37;;;;;;;1.08;0.30;;;18.40;66.30;;;;;;5094983;28;20208;-79
2021/05/14 12:31:07;;;;;;;1.52;0.40;;;18.60;66.50;;;;;;5095090;28;20056;-78
2021/05/14 12:33:50;;;;;;;1.50;0.32;;;18.80;65.90;;;;;;5104145;28;20044;-77
2021/05/14 12:36:24;;;;;;;2.38;0.50;;;19.00;65.80;;;;;;5097219;28;20131;-80
2021/05/14 12:38:52;;;;;;;2.80;0.40;;;19.10;64.00;;;;;;5077401;28;20043;-79
2021/05/14 12:41:30;;;;;;;2.42;0.40;;;19.30;64.40;;;;;;5095008;28;20122;-78
2021/05/14 12:44:15;;;;;;;0.98;0.30;;;19.40;63.00;;;;;;5095041;28;20082;-78
2021/05/14 12:47:09;;;;;;;1.20;0.32;;;19.50;64.10;;;;;;5095192;28;20044;-79
2021/05/14 12:49:43;;;;;;;1.52;0.43;;;19.60;63.00;;;;;;5071933;28;20048;-78
2021/05/14 12:52:13;;;;;;;1.08;0.43;;;19.60;62.30;;;;;;5095032;28;20052;-79
2021/05/14 12:54:51;;;;;;;1.15;0.40;;;19.90;62.90;;;;;;5105548;28;20089;-83
2021/05/14 12:57:32;;;;;;;1.70;0.60;;;19.90;61.50;;;;;;5099098;28;20047;-78
2021/05/14 13:00:01;;;;;;;2.20;0.40;;;20.10;62.30;;;;;;5087076;28;20082;-78